Time;durP1;ratioP1;P1;durP2;ratioP2;P2;SDS_P1;SDS_P2;PMS_P1;PMS_P2;Temp;Humidity;BMP_temperature;BMP_pressure;BME280_temperature;BME280_humidity;BME280_pressure;Samples;Min_cycle;Max_cycle;Signal;HPM_P1;HPM_P2
2023/03/10 20:04:00;;;;;;;7.20;3.17;;;;;;;24.06;38.07;97537.31;4508101;31;132566;-55
2023/03/10 20:06:30;;;;;;;8.60;3.58;;;;;;;24.06;38.07;97537.31;4498738;31;34537;-61
2023/03/10 20:09:00;;;;;;;7.90;3.78;;;;;;;23.79;38.31;97545.97;4498785;31;33974;-59
2023/03/10 20:11:29;;;;;;;6.68;3.50;;;;;;;23.95;38.43;97552.13;4497171;31;34000;-60
2023/03/10 20:13:58;;;;;;;7.95;3.67;;;;;;;24.06;38.22;97557.22;4511320;31;34094;-59
2023/03/10 20:16:27;;;;;;;9.52;3.70;;;;;;;24.14;38.07;97556.59;4511306;31;34083;-58
2023/03/10 20:18:57;;;;;;;8.50;3.67;;;;;;;24.22;37.96;97554.34;4510897;31;33384;-58
2023/03/10 20:21:26;;;;;;;7.78;3.62;;;;;;;24.27;37.88;97557.03;4511234;31;33519;-59
2023/03/10 20:23:55;;;;;;;8.57;3.60;;;;;;;24.31;37.77;97541.75;4511038;31;33617;-58
2023/03/10 20:26:24;;;;;;;10.10;3.50;;;;;;;24.35;37.63;97529.97;4510654;31;34054;-53
2023/03/10 20:28:52;;;;;;;13.45;4.22;;;;;;;24.37;37.58;97522.34;4509946;31;33808;-59
2023/03/10 20:31:21;;;;;;;13.10;3.87;;;;;;;24.43;37.62;97498.56;4511100;31;33873;-58
2023/03/10 20:33:50;;;;;;;13.88;4.70;;;;;;;24.43;37.53;97472.16;4511146;31;33669;-58
2023/03/10 20:36:18;;;;;;;7.70;3.33;;;;;;;24.45;37.45;97457.41;4474099;32;33056;-53
2023/03/10 20:38:47;;;;;;;10.95;4.00;;;;;;;24.47;37.36;97436.12;4495282;32;34389;-60
2023/03/10 20:41:16;;;;;;;10.35;3.62;;;;;;;24.47;37.36;97420.56;4495128;31;33789;-57
2023/03/10 20:43:47;;;;;;;8.70;3.72;;;;;;;24.48;37.24;97427.66;4496200;31;34069;-57
2023/03/10 20:46:18;;;;;;;8.45;3.62;;;;;;;24.50;37.36;97414.56;4496207;31;32370;-56
2023/03/10 20:48:48;;;;;;;8.80;3.70;;;;;;;24.51;37.26;97434.44;4499618;31;33408;-57
2023/03/10 20:51:17;;;;;;;8.77;4.18;;;;;;;24.52;37.29;97449.69;4510695;31;33621;-59
2023/03/10 20:53:48;;;;;;;8.95;3.90;;;;;;;24.52;37.21;97472.31;4500964;31;34646;-57
2023/03/10 20:56:17;;;;;;;10.00;3.70;;;;;;;24.53;37.12;97484.03;4486188;32;32823;-58
2023/03/10 20:58:45;;;;;;;10.23;3.97;;;;;;;24.55;37.14;97479.09;4490278;32;34611;-58
2023/03/10 21:01:19;;;;;;;9.20;3.95;;;;;;;24.55;37.12;97484.56;4486221;31;33610;-59
2023/03/10 21:03:47;;;;;;;8.88;3.72;;;;;;;24.54;37.11;97491.94;4474330;32;33875;-56
2023/03/10 21:06:15;;;;;;;9.65;3.53;;;;;;;24.55;37.07;97488.09;4468966;32;33318;-59
2023/03/10 21:08:43;;;;;;;10.63;3.95;;;;;;;24.56;37.07;97483.44;4472494;32;33725;-58
2023/03/10 21:11:11;;;;;;;9.20;3.75;;;;;;;24.56;37.06;97483.44;4483759;31;33018;-59
2023/03/10 21:13:42;;;;;;;8.15;3.45;;;;;;;24.55;37.05;97485.37;4483291;32;32561;-59
2023/03/10 21:16:10;;;;;;;10.52;3.47;;;;;;;24.56;37.02;97484.25;4467686;32;33387;-58
2023/03/10 21:18:39;;;;;;;6.62;3.58;;;;;;;24.55;36.99;97485.37;4478190;32;34738;-59
2023/03/10 21:21:08;;;;;;;5.62;3.00;;;;;;;24.55;37.04;97482.62;4482952;32;33903;-58
2023/03/10 21:23:40;;;;;;;7.90;3.75;;;;;;;24.55;37.04;97490.81;4479891;32;34571;-60
2023/03/10 21:26:12;;;;;;;8.27;3.35;;;;;;;24.57;37.02;97487.78;4484047;32;34134;-59
2023/03/10 21:28:41;;;;;;;6.97;3.42;;;;;;;24.57;36.97;97493.25;4484367;32;34750;-57
2023/03/10 21:31:09;;;;;;;8.90;3.35;;;;;;;24.56;36.96;97484.25;4482786;32;34015;-60
2023/03/10 21:33:40;;;;;;;8.18;3.58;;;;;;;24.55;36.97;97488.09;4483411;32;34041;-56
2023/03/10 21:36:14;;;;;;;5.50;2.95;;;;;;;24.56;36.98;97494.34;4484631;32;33595;-59
2023/03/10 21:38:42;;;;;;;11.02;3.60;;;;;;;24.55;36.81;97501.72;4483573;32;35046;-51
2023/03/10 21:41:13;;;;;;;8.30;3.53;;;;;;;24.56;36.75;97499.81;4484769;32;34599;-56
2023/03/10 21:43:41;;;;;;;16.42;3.97;;;;;;;24.57;36.91;97506.88;4475364;31;34020;-50
2023/03/10 21:46:08;;;;;;;12.35;3.42;;;;;;;24.59;36.93;97504.69;4483537;32;32805;-50
2023/03/10 21:48:37;;;;;;;9.52;3.15;;;;;;;24.58;36.85;97503.06;4483905;32;34631;-53
2023/03/10 21:51:05;;;;;;;9.75;3.60;;;;;;;24.56;36.83;97494.34;4483430;32;33784;-50
2023/03/10 21:53:32;;;;;;;9.68;3.60;;;;;;;24.56;36.84;97502.53;4484156;32;33592;-54
2023/03/10 21:56:00;;;;;;;8.02;3.30;;;;;;;24.56;36.81;97505.25;4480316;32;34028;-56
2023/03/10 21:58:28;;;;;;;12.37;3.03;;;;;;;24.57;36.86;97517.78;4470318;32;34080;-53
2023/03/10 22:00:55;;;;;;;11.43;3.22;;;;;;;24.57;36.87;97515.06;4475155;32;33910;-50
2023/03/10 22:03:23;;;;;;;11.02;3.47;;;;;;;24.55;36.86;97512.62;4468745;32;33745;-55
2023/03/10 22:05:51;;;;;;;11.63;3.00;;;;;;;24.57;36.81;97520.50;4468487;32;33031;-56
2023/03/10 22:08:19;;;;;;;9.27;3.40;;;;;;;24.57;36.76;97526.78;4472194;32;34515;-51
2023/03/10 22:10:47;;;;;;;7.90;3.53;;;;;;;24.57;36.72;97528.69;4484069;32;34973;-54
2023/03/10 22:13:15;;;;;;;9.32;3.50;;;;;;;24.55;36.70;97520.00;4483797;32;34724;-52
2023/03/10 22:15:42;;;;;;;9.07;3.55;;;;;;;24.53;36.63;97512.12;4482963;32;33520;-56
2023/03/10 22:18:10;;;;;;;18.12;3.45;;;;;;;24.53;36.55;97505.81;4483879;32;34797;-50
2023/03/10 22:20:38;;;;;;;9.68;3.22;;;;;;;24.50;36.63;97504.50;4474283;32;34988;-54
2023/03/10 22:23:06;;;;;;;14.75;3.45;;;;;;;24.51;36.58;97500.69;4483981;32;34167;-57
2023/03/10 22:25:34;;;;;;;18.60;3.37;;;;;;;24.48;36.53;97493.09;4479426;32;34165;-49
2023/03/10 22:28:02;;;;;;;9.35;3.42;;;;;;;24.48;36.51;97494.97;4481773;32;33911;-49
2023/03/10 22:30:30;;;;;;;11.75;3.35;;;;;;;24.48;36.44;97498.53;4483990;32;33730;-52
2023/03/10 22:32:58;;;;;;;8.30;2.97;;;;;;;24.46;36.37;97491.75;4484191;32;33746;-53
2023/03/10 22:35:25;;;;;;;7.87;3.15;;;;;;;24.45;36.36;97481.94;4484284;32;33468;-53
2023/03/10 22:37:53;;;;;;;10.25;3.60;;;;;;;24.44;36.31;97486.59;4484275;32;33932;-53
2023/03/10 22:40:21;;;;;;;8.35;3.40;;;;;;;24.40;36.38;97474.62;4484299;32;33883;-51
2023/03/10 22:42:49;;;;;;;10.43;3.17;;;;;;;24.38;36.48;97477.63;4482775;32;34551;-55
2023/03/10 22:45:18;;;;;;;14.77;3.67;;;;;;;24.37;36.37;97473.28;4477409;32;33913;-54
2023/03/10 22:47:45;;;;;;;8.00;2.90;;;;;;;24.36;36.36;97477.13;4467517;32;34016;-55
2023/03/10 22:50:24;;;;;;;13.77;3.35;;;;;;;24.35;36.39;97480.91;4468452;32;34745;-50
2023/03/10 22:52:52;;;;;;;11.45;3.42;;;;;;;24.33;36.45;97477.66;4468479;32;33801;-54
2023/03/10 22:55:22;;;;;;;9.05;3.28;;;;;;;24.33;36.46;97480.38;4468357;32;33842;-50
2023/03/10 22:57:50;;;;;;;12.02;3.10;;;;;;;24.32;36.41;97486.94;4467337;32;34730;-50
2023/03/10 23:00:19;;;;;;;9.32;3.10;;;;;;;24.32;36.42;97491.56;4467568;32;34762;-53
2023/03/10 23:02:47;;;;;;;7.68;2.70;;;;;;;24.30;36.50;97497.31;4482001;32;34293;-55
2023/03/10 23:05:15;;;;;;;7.90;3.15;;;;;;;24.30;36.51;97497.31;4484152;32;32888;-50
2023/03/10 23:07:43;;;;;;;8.65;2.85;;;;;;;24.29;36.58;97495.69;4484134;32;33666;-49
2023/03/10 23:10:22;;;;;;;6.05;3.25;;;;;;;24.29;36.62;97489.41;4484081;32;33931;-52
2023/03/10 23:12:50;;;;;;;9.05;2.95;;;;;;;24.29;36.60;97490.22;4482911;32;34201;-52
2023/03/10 23:15:22;;;;;;;6.75;2.72;;;;;;;24.27;36.50;97492.44;4482801;32;33537;-49
2023/03/10 23:17:53;;;;;;;11.60;3.28;;;;;;;24.26;36.58;97485.37;4482802;32;33847;-50
2023/03/10 23:20:25;;;;;;;13.60;3.22;;;;;;;24.26;36.63;97495.47;4481239;32;34695;-51
2023/03/10 23:22:55;;;;;;;8.98;3.20;;;;;;;24.24;36.70;97498.47;4483622;32;33711;-56
2023/03/10 23:25:25;;;;;;;11.07;3.08;;;;;;;24.23;36.75;97505.00;4476138;32;34202;-57
2023/03/10 23:27:52;;;;;;;8.23;2.70;;;;;;;24.22;36.72;97517.03;4467707;32;33718;-55
2023/03/10 23:30:20;;;;;;;8.13;2.83;;;;;;;24.23;36.70;97513.19;4468159;32;33720;-53
2023/03/10 23:32:48;;;;;;;8.10;2.85;;;;;;;24.23;36.69;97515.09;4468901;32;34501;-58
2023/03/10 23:35:18;;;;;;;12.77;3.05;;;;;;;24.23;36.71;97512.38;4473962;32;33308;-55
2023/03/10 23:37:46;;;;;;;6.10;2.70;;;;;;;24.22;36.77;97519.75;4468632;32;34098;-57
2023/03/10 23:40:14;;;;;;;8.95;2.85;;;;;;;24.23;36.75;97521.34;4469563;32;32938;-55
2023/03/10 23:42:42;;;;;;;4.35;2.42;;;;;;;24.21;36.72;97515.41;4483626;32;33568;-57
2023/03/10 23:45:11;;;;;;;7.70;3.12;;;;;;;24.22;36.75;97513.47;4483710;32;33399;-56
2023/03/10 23:47:39;;;;;;;6.82;2.58;;;;;;;24.21;36.78;97520.84;4483364;32;33722;-53
2023/03/10 23:50:07;;;;;;;9.40;3.10;;;;;;;24.21;36.70;97531.75;4479395;32;34460;-56
2023/03/10 23:52:35;;;;;;;11.85;3.15;;;;;;;24.21;36.72;97517.31;4468801;32;34478;-53
2023/03/10 23:55:03;;;;;;;6.85;2.85;;;;;;;24.19;36.86;97518.38;4467896;32;33645;-55
2023/03/10 23:57:30;;;;;;;7.62;2.72;;;;;;;24.19;36.91;97518.38;4470676;32;34535;-55
2023/03/10 23:59:58;;;;;;;8.48;2.70;;;;;;;24.19;36.91;97514.84;4483514;32;34153;-55
